createdAt,value
2019-03-12T00:01:19.526Z,-0.38
2019-03-12T00:03:46.899Z,-0.53
2019-03-12T00:06:14.219Z,-0.45
2019-03-12T00:08:41.603Z,-0.51
2019-03-12T00:11:08.924Z,-0.51
2019-03-12T00:13:36.239Z,-0.51
2019-03-12T00:16:03.721Z,-0.39
2019-03-12T00:18:31.375Z,-0.33
2019-03-12T00:20:58.739Z,-0.51
2019-03-12T00:23:26.080Z,-0.51
2019-03-12T00:25:53.361Z,-0.43
2019-03-12T00:28:20.699Z,-0.56
2019-03-12T00:30:48.038Z,-0.33
2019-03-12T00:33:15.380Z,-0.49
2019-03-12T00:35:42.719Z,-0.54
2019-03-12T00:38:10.039Z,-0.61
2019-03-12T00:40:37.367Z,-0.59
2019-03-12T00:43:04.686Z,-0.49
2019-03-12T00:45:32.019Z,-0.60
2019-03-12T00:47:59.319Z,-0.60
2019-03-12T00:50:26.761Z,-0.66
2019-03-12T00:52:54.041Z,-0.69
2019-03-12T00:55:21.339Z,-0.70
2019-03-12T00:57:48.679Z,-0.70
2019-03-12T01:00:16.259Z,-0.67
2019-03-12T01:02:43.541Z,-0.51
2019-03-12T01:05:13.444Z,-0.54
2019-03-12T01:07:40.852Z,-0.70
2019-03-12T01:10:09.703Z,-0.70
2019-03-12T01:12:38.240Z,-0.53
2019-03-12T01:15:05.739Z,-0.60
2019-03-12T01:17:33.042Z,-0.48
2019-03-12T01:20:00.415Z,-0.60
2019-03-12T01:22:27.711Z,-0.60
2019-03-12T01:24:55.002Z,-0.60
2019-03-12T01:27:22.359Z,-0.66
2019-03-12T01:29:49.662Z,-0.62
2019-03-12T01:32:17.002Z,-0.60
2019-03-12T01:34:44.320Z,-0.67
2019-03-12T01:37:11.640Z,-0.55
2019-03-12T01:39:38.979Z,-0.53
2019-03-12T01:42:06.312Z,-0.53
2019-03-12T01:44:33.665Z,-0.31
2019-03-12T01:47:00.960Z,-0.31
2019-03-12T01:49:28.244Z,-0.52
2019-03-12T01:51:55.568Z,-0.54
2019-03-12T01:54:22.842Z,-0.61
2019-03-12T01:56:50.180Z,-0.45
2019-03-12T01:59:17.499Z,-0.62
2019-03-12T02:01:44.839Z,-0.64
2019-03-12T02:04:12.149Z,-0.47
2019-03-12T02:06:39.519Z,-0.54
2019-03-12T02:09:07.692Z,-0.64
2019-03-12T02:11:35.083Z,-0.55
2019-03-12T02:14:23.040Z,-0.64
2019-03-12T02:16:50.339Z,-0.64
2019-03-12T02:19:17.659Z,-0.52
2019-03-12T02:21:44.999Z,-0.45
2019-03-12T02:24:12.360Z,-0.45
2019-03-12T02:26:39.619Z,-0.53
2019-03-12T02:29:06.983Z,-0.56
2019-03-12T02:31:34.300Z,-0.56
2019-03-12T02:34:01.648Z,-0.54
2019-03-12T02:36:28.942Z,-0.54
2019-03-12T02:38:56.303Z,-0.41
2019-03-12T02:41:23.642Z,-0.37
2019-03-12T02:43:50.941Z,-0.38
2019-03-12T02:46:18.263Z,-0.38
2019-03-12T02:48:45.564Z,-0.35
2019-03-12T02:51:12.920Z,-0.37
2019-03-12T02:53:40.179Z,-0.37
2019-03-12T02:56:07.500Z,-0.54
2019-03-12T02:58:34.859Z,-0.34
2019-03-12T03:01:02.149Z,-0.35
2019-03-12T03:03:29.459Z,-0.35
2019-03-12T03:06:07.543Z,-0.38
2019-03-12T03:08:34.852Z,-0.30
2019-03-12T03:11:02.731Z,-0.30
2019-03-12T03:13:30.039Z,-0.45
2019-03-12T03:15:57.339Z,-0.42
2019-03-12T03:18:24.740Z,-0.35
2019-03-12T03:20:52.240Z,-0.35
2019-03-12T03:23:19.663Z,-0.43
2019-03-12T03:25:47.293Z,-0.43
2019-03-12T03:28:14.583Z,-0.31
2019-03-12T03:30:41.960Z,-0.22
2019-03-12T03:33:11.355Z,-0.27
2019-03-12T03:35:38.747Z,-0.33
2019-03-12T03:38:06.079Z,-0.33
2019-03-12T03:40:33.396Z,-0.33
2019-03-12T03:43:00.743Z,-0.14
2019-03-12T03:45:28.060Z,0.02
2019-03-12T03:47:55.388Z,-0.19
2019-03-12T03:50:22.714Z,-0.23
2019-03-12T03:52:50.460Z,-0.01
2019-03-12T03:55:17.782Z,-0.03
2019-03-12T03:57:45.080Z,-0.11
2019-03-12T04:00:15.264Z,-0.11
2019-03-12T04:02:42.607Z,-0.42
2019-03-12T04:05:09.959Z,0.05
2019-03-12T04:07:37.314Z,-0.24
2019-03-12T04:10:05.533Z,0.18
2019-03-12T04:12:32.863Z,0.18
2019-03-12T04:15:00.483Z,-0.04
2019-03-12T04:17:27.925Z,-0.32
2019-03-12T04:19:55.259Z,-0.22
2019-03-12T04:22:22.559Z,-0.28
2019-03-12T04:24:49.861Z,0.15
2019-03-12T04:27:17.260Z,-0.03
2019-03-12T04:29:44.554Z,-0.10
2019-03-12T04:32:11.860Z,-0.24
2019-03-12T04:34:40.952Z,0.05
2019-03-12T04:37:08.324Z,-0.08
2019-03-12T04:39:35.623Z,-0.32
2019-03-12T04:42:02.920Z,-0.34
2019-03-12T04:44:30.243Z,-0.23
2019-03-12T04:46:57.559Z,-0.39
2019-03-12T04:49:24.885Z,-0.39
2019-03-12T04:51:52.210Z,-0.20
2019-03-12T04:54:19.518Z,-0.26
2019-03-12T04:56:46.831Z,-0.42
2019-03-12T04:59:14.187Z,-0.10
2019-03-12T05:01:41.479Z,-0.01
2019-03-12T05:04:08.782Z,-0.43
2019-03-12T05:06:36.119Z,-0.29
2019-03-12T05:09:07.376Z,-0.24
2019-03-12T05:11:34.759Z,-0.24
2019-03-12T05:14:24.405Z,-0.38
2019-03-12T05:16:53.500Z,-0.39
2019-03-12T05:19:21.172Z,-0.29
2019-03-12T05:21:48.439Z,-0.26
2019-03-12T05:24:16.062Z,-0.20
2019-03-12T05:26:43.361Z,-0.27
2019-03-12T05:29:10.702Z,-0.22
2019-03-12T05:31:37.951Z,-0.35
2019-03-12T05:34:05.307Z,-0.28
2019-03-12T05:36:32.599Z,-0.34
2019-03-12T05:38:59.943Z,-0.32
2019-03-12T05:41:27.272Z,-0.32
2019-03-12T05:43:54.596Z,-0.30
2019-03-12T05:46:21.961Z,-0.22
2019-03-12T05:48:49.272Z,-0.15
2019-03-12T05:51:16.644Z,-0.29
2019-03-12T05:53:46.931Z,-0.24
2019-03-12T05:56:14.202Z,-0.16
2019-03-12T05:58:41.519Z,-0.04
2019-03-12T06:01:08.819Z,-0.25
2019-03-12T06:03:36.200Z,-0.05
2019-03-12T06:06:03.477Z,0.12
2019-03-12T06:08:30.962Z,0.22
2019-03-12T06:10:58.244Z,-0.14
2019-03-12T06:13:25.961Z,0.05
2019-03-12T06:15:53.393Z,0.03
2019-03-12T06:18:21.077Z,0.20
2019-03-12T06:20:48.567Z,-0.04
2019-03-12T06:23:15.905Z,0.21
2019-03-12T06:25:43.245Z,0.09
2019-03-12T06:28:10.599Z,0.11
2019-03-12T06:30:49.489Z,-0.05
2019-03-12T06:33:24.301Z,-0.02
2019-03-12T06:36:00.284Z,-0.14
2019-03-12T06:38:47.397Z,-0.09
2019-03-12T06:41:28.608Z,-0.12
2019-03-12T06:44:13.822Z,0.01
2019-03-12T06:46:57.996Z,0.04
2019-03-12T06:49:31.116Z,0.10
2019-03-12T06:52:07.068Z,0.14
2019-03-12T06:54:53.949Z,0.15
2019-03-12T06:57:39.342Z,0.35
2019-03-12T07:00:28.848Z,0.22
2019-03-12T07:03:11.636Z,0.38
2019-03-12T07:05:53.279Z,0.46
2019-03-12T07:08:40.105Z,0.32
2019-03-12T07:11:25.360Z,0.38
2019-03-12T07:14:06.514Z,0.47
2019-03-12T07:16:51.779Z,0.41
2019-03-12T07:19:30.307Z,0.65
2019-03-12T07:22:23.078Z,0.64
2019-03-12T07:25:15.757Z,0.80
2019-03-12T07:28:02.640Z,0.83
2019-03-12T07:30:55.609Z,0.90
2019-03-12T07:33:42.453Z,1.12
2019-03-12T07:36:31.948Z,1.17
2019-03-12T07:39:36.838Z,1.32
2019-03-12T07:42:41.899Z,2.04
2019-03-12T07:45:47.016Z,1.57
2019-03-12T07:48:32.455Z,1.74
2019-03-12T07:51:18.073Z,1.79
2019-03-12T07:54:07.513Z,1.57
2019-03-12T07:56:48.592Z,1.95
2019-03-12T07:59:38.084Z,1.76
2019-03-12T08:02:27.597Z,1.80
2019-03-12T08:05:17.100Z,1.58
2019-03-12T08:07:57.159Z,1.51
2019-03-12T08:10:33.806Z,1.35
2019-03-12T08:13:23.149Z,1.61
2019-03-12T08:16:03.499Z,1.65
2019-03-12T08:18:53.201Z,1.48
2019-03-12T08:21:41.609Z,1.60
2019-03-12T08:24:32.489Z,2.05
2019-03-12T08:27:31.229Z,2.20
2019-03-12T08:30:20.775Z,2.39
2019-03-12T08:33:08.544Z,3.02
2019-03-12T08:35:54.300Z,2.95
2019-03-12T08:38:39.741Z,3.00
2019-03-12T08:41:35.471Z,3.48
2019-03-12T08:44:11.440Z,3.23
2019-03-12T08:47:10.364Z,3.68
2019-03-12T08:49:58.570Z,3.36
2019-03-12T08:52:40.160Z,3.76
2019-03-12T08:55:30.965Z,3.29
2019-03-12T08:58:13.477Z,3.64
2019-03-12T09:00:54.958Z,3.63
2019-03-12T09:03:51.997Z,3.21
2019-03-12T09:06:35.295Z,3.12
2019-03-12T09:09:23.353Z,3.47
2019-03-12T09:12:08.778Z,3.77
2019-03-12T09:14:51.537Z,3.93
2019-03-12T09:17:44.422Z,3.78
2019-03-12T09:20:26.692Z,3.49
2019-03-12T09:23:12.097Z,4.17
2019-03-12T09:25:58.929Z,4.14
2019-03-12T09:28:40.933Z,3.92
2019-03-12T09:31:26.333Z,4.09
2019-03-12T09:34:16.321Z,3.52
2019-03-12T09:37:15.082Z,4.23
2019-03-12T09:39:50.278Z,3.64
2019-03-12T09:42:33.344Z,3.73
2019-03-12T09:45:29.269Z,4.12
2019-03-12T09:48:15.160Z,3.45
2019-03-12T09:50:47.779Z,4.17
2019-03-12T09:53:24.518Z,3.69
2019-03-12T09:56:14.184Z,3.71
2019-03-12T09:59:01.035Z,4.14
2019-03-12T10:01:54.236Z,4.55
2019-03-12T10:04:41.102Z,4.36
2019-03-12T10:07:24.448Z,3.92
2019-03-12T10:10:20.279Z,4.15
2019-03-12T10:13:11.929Z,4.43
2019-03-12T10:15:56.500Z,4.18
2019-03-12T10:18:45.860Z,3.94
2019-03-12T10:21:32.721Z,4.08
2019-03-12T10:24:28.987Z,4.09
2019-03-12T10:27:15.910Z,4.00
2019-03-12T10:30:05.634Z,3.60
2019-03-12T10:32:49.679Z,4.46
2019-03-12T10:35:39.300Z,4.59
2019-03-12T10:38:57.259Z,4.48
2019-03-12T10:41:34.099Z,4.79
2019-03-12T10:44:13.061Z,4.26
2019-03-12T10:46:45.184Z,4.61
2019-03-12T10:49:12.529Z,4.55
2019-03-12T10:51:39.880Z,4.58
2019-03-12T10:54:07.181Z,4.60
2019-03-12T10:56:34.489Z,4.84
2019-03-12T10:59:01.791Z,4.99
2019-03-12T11:01:29.079Z,4.89
2019-03-12T11:03:56.403Z,4.76
2019-03-12T11:06:25.091Z,4.65
2019-03-12T11:08:52.404Z,4.57
2019-03-12T11:11:19.784Z,5.04
2019-03-12T11:13:47.150Z,4.90
2019-03-12T11:16:14.413Z,4.97
2019-03-12T11:18:41.856Z,4.99
2019-03-12T11:21:09.167Z,5.25
2019-03-12T11:23:36.487Z,5.50
2019-03-12T11:26:03.839Z,5.31
2019-03-12T11:28:31.180Z,5.48
2019-03-12T11:30:58.621Z,5.36
2019-03-12T11:33:25.944Z,5.36
2019-03-12T11:35:53.370Z,5.47
2019-03-12T11:38:20.715Z,5.67
2019-03-12T11:40:48.120Z,5.24
2019-03-12T11:43:15.489Z,5.46
2019-03-12T11:45:42.825Z,5.75
2019-03-12T11:48:10.433Z,5.62
2019-03-12T11:50:37.886Z,5.80
2019-03-12T11:53:05.371Z,5.87
2019-03-12T11:55:32.789Z,5.68
2019-03-12T11:58:00.116Z,6.29
2019-03-12T12:00:34.003Z,6.07
2019-03-12T12:03:01.319Z,6.10
2019-03-12T12:05:28.624Z,5.87
2019-03-12T12:07:56.102Z,5.80
2019-03-12T12:10:23.511Z,5.91
2019-03-12T12:12:50.915Z,6.52
2019-03-12T12:15:18.183Z,6.52
2019-03-12T12:17:45.566Z,6.11
2019-03-12T12:20:13.201Z,5.94
2019-03-12T12:22:40.481Z,6.22
2019-03-12T12:25:09.401Z,6.35
2019-03-12T12:27:36.693Z,6.56
2019-03-12T12:30:04.866Z,6.20
2019-03-12T12:32:32.154Z,6.91
2019-03-12T12:34:59.459Z,6.42
2019-03-12T12:37:26.790Z,6.52
2019-03-12T12:39:54.086Z,6.56
2019-03-12T12:42:21.383Z,6.27
2019-03-12T12:44:48.641Z,6.98
2019-03-12T12:47:15.994Z,6.45
2019-03-12T12:49:43.366Z,6.51
2019-03-12T12:52:10.660Z,6.86
2019-03-12T12:54:37.986Z,6.40
2019-03-12T12:57:06.319Z,6.59
2019-03-12T12:59:34.325Z,6.70
2019-03-12T13:02:01.578Z,6.66
2019-03-12T13:04:28.961Z,6.89
2019-03-12T13:06:56.256Z,6.87
2019-03-12T13:09:23.563Z,7.08
2019-03-12T13:11:50.966Z,7.49
2019-03-12T13:14:18.280Z,6.94
2019-03-12T13:16:45.592Z,7.17
2019-03-12T13:19:13.064Z,7.13
2019-03-12T13:21:40.489Z,7.53
2019-03-12T13:24:07.851Z,7.20
2019-03-12T13:26:35.255Z,8.37
2019-03-12T13:29:02.650Z,7.61
2019-03-12T13:31:30.070Z,8.16
2019-03-12T13:33:57.509Z,8.23
2019-03-12T13:36:24.795Z,8.47
2019-03-12T13:38:52.128Z,7.92
2019-03-12T13:41:19.519Z,8.19
2019-03-12T13:43:47.315Z,7.60
2019-03-12T13:46:14.613Z,8.49
2019-03-12T13:48:41.850Z,8.27
2019-03-12T13:51:09.174Z,8.31
2019-03-12T13:53:36.461Z,8.01
2019-03-12T13:56:03.712Z,7.98
2019-03-12T13:58:31.024Z,7.83
2019-03-12T14:00:58.288Z,8.09
2019-03-12T14:03:25.588Z,8.07
2019-03-12T14:05:52.894Z,8.18
2019-03-12T14:08:20.209Z,7.98
2019-03-12T14:10:47.509Z,8.44
2019-03-12T14:13:14.929Z,8.41
2019-03-12T14:15:42.281Z,8.28
2019-03-12T14:18:09.546Z,8.57
2019-03-12T14:20:49.042Z,8.48
2019-03-12T14:23:39.745Z,8.09
2019-03-12T14:26:07.158Z,8.90
2019-03-12T14:28:34.470Z,8.57
2019-03-12T14:31:01.946Z,9.03
2019-03-12T14:33:29.355Z,8.41
2019-03-12T14:35:56.742Z,8.81
2019-03-12T14:38:24.258Z,9.07
2019-03-12T14:40:51.608Z,8.77
2019-03-12T14:43:18.954Z,8.61
2019-03-12T14:45:50.215Z,8.80
2019-03-12T14:48:36.561Z,9.52
2019-03-12T14:51:05.273Z,8.54
2019-03-12T14:53:32.653Z,8.81
2019-03-12T14:56:00.028Z,8.30
2019-03-12T14:58:27.353Z,8.04
2019-03-12T15:00:54.690Z,9.49
2019-03-12T15:03:22.080Z,9.08
2019-03-12T15:05:49.388Z,9.57
2019-03-12T15:08:16.803Z,9.49
2019-03-12T15:10:44.203Z,9.95
2019-03-12T15:13:11.759Z,9.47
2019-03-12T15:15:39.130Z,9.49
2019-03-12T15:18:06.563Z,9.70
2019-03-12T15:20:34.057Z,9.19
2019-03-12T15:23:01.438Z,8.91
2019-03-12T15:25:28.791Z,9.29
2019-03-12T15:27:56.282Z,10.06
2019-03-12T15:30:23.659Z,9.46
2019-03-12T15:32:51.010Z,9.79
2019-03-12T15:35:18.430Z,9.17
2019-03-12T15:37:45.785Z,9.56
2019-03-12T15:40:14.125Z,8.62
2019-03-12T15:42:41.623Z,8.15
2019-03-12T15:45:10.243Z,8.48
2019-03-12T15:47:38.885Z,8.38
2019-03-12T15:50:09.837Z,8.75
2019-03-12T15:52:36.838Z,8.13
2019-03-12T15:55:04.605Z,7.95
2019-03-12T15:57:32.346Z,7.89
2019-03-12T15:59:59.919Z,8.02
2019-03-12T16:02:27.563Z,7.39
2019-03-12T16:04:55.123Z,6.79
2019-03-12T16:07:22.785Z,7.22
2019-03-12T16:12:50.387Z,7.25
2019-03-12T16:15:18.006Z,6.98
2019-03-12T16:17:45.582Z,6.85
2019-03-12T16:20:13.740Z,6.62
2019-03-12T16:22:41.825Z,6.54
2019-03-12T16:25:09.765Z,6.55
2019-03-12T16:27:37.360Z,6.60
2019-03-12T16:30:05.452Z,5.71
2019-03-12T16:32:35.310Z,6.14
2019-03-12T16:35:02.842Z,6.00
2019-03-12T16:37:30.461Z,5.82
2019-03-12T16:39:58.081Z,5.68
2019-03-12T16:42:34.557Z,5.47
2019-03-12T16:44:55.204Z,5.60
2019-03-12T16:47:22.761Z,5.59
2019-03-12T16:49:50.588Z,5.36
2019-03-12T16:52:18.163Z,5.82
2019-03-12T16:54:45.926Z,5.42
2019-03-12T16:57:13.551Z,5.27
2019-03-12T16:59:43.218Z,5.30
2019-03-12T17:02:11.326Z,5.43
2019-03-12T17:04:39.426Z,5.52
2019-03-12T17:07:07.201Z,5.26
2019-03-12T17:09:34.987Z,5.15
2019-03-12T17:12:03.407Z,5.55
2019-03-12T17:14:38.853Z,5.43
2019-03-12T17:17:00.648Z,5.31
2019-03-12T17:19:28.295Z,5.46
2019-03-12T17:21:56.038Z,5.14
2019-03-12T17:24:24.025Z,5.23
2019-03-12T17:26:51.990Z,5.30
2019-03-12T17:29:19.664Z,5.04
2019-03-12T17:31:47.472Z,5.50
2019-03-12T17:34:15.390Z,5.24
2019-03-12T17:36:43.134Z,5.26
2019-03-12T17:39:10.868Z,4.97
2019-03-12T17:41:38.581Z,5.23
2019-03-12T17:44:06.409Z,5.17
2019-03-12T17:46:34.222Z,4.97
2019-03-12T17:49:01.955Z,5.25
2019-03-12T17:51:29.639Z,4.92
2019-03-12T17:53:57.302Z,4.77
2019-03-12T17:56:25.010Z,4.99
2019-03-12T17:58:52.704Z,5.13
2019-03-12T18:01:20.331Z,5.22
2019-03-12T18:03:48.029Z,4.89
2019-03-12T18:06:15.655Z,5.02
2019-03-12T18:08:43.294Z,4.54
2019-03-12T18:11:11.100Z,4.67
2019-03-12T18:13:38.858Z,4.59
2019-03-12T18:16:06.695Z,4.40
2019-03-12T18:18:34.521Z,4.47
2019-03-12T18:21:02.490Z,4.60
2019-03-12T18:23:30.149Z,4.74
2019-03-12T18:25:58.428Z,4.74
2019-03-12T18:28:26.243Z,4.85
2019-03-12T18:30:53.983Z,4.92
2019-03-12T18:33:22.013Z,4.64
2019-03-12T18:35:49.814Z,4.66
2019-03-12T18:38:17.526Z,4.21
2019-03-12T18:40:45.870Z,3.98
2019-03-12T18:43:14.992Z,3.71
2019-03-12T18:45:45.793Z,3.89
2019-03-12T18:48:13.998Z,3.88
2019-03-12T18:50:42.702Z,4.28
2019-03-12T18:53:10.449Z,4.06
2019-03-12T18:55:52.834Z,3.60
2019-03-12T18:58:20.623Z,3.23
2019-03-12T19:00:49.262Z,3.66
2019-03-12T19:03:17.273Z,3.83
2019-03-12T19:05:45.362Z,3.31
2019-03-12T19:08:13.072Z,3.33
2019-03-12T19:10:40.841Z,3.56
2019-03-12T19:13:08.927Z,3.18
2019-03-12T19:15:36.835Z,3.36
2019-03-12T19:18:08.763Z,3.49
2019-03-12T19:20:36.530Z,3.24
2019-03-12T19:23:04.376Z,2.94
2019-03-12T19:25:32.843Z,3.04
2019-03-12T19:28:00.798Z,2.96
2019-03-12T19:30:28.628Z,3.05
2019-03-12T19:33:01.970Z,2.99
2019-03-12T19:35:29.886Z,3.31
2019-03-12T19:37:57.779Z,2.94
2019-03-12T19:40:26.059Z,2.88
2019-03-12T19:42:53.881Z,2.83
2019-03-12T19:45:21.731Z,3.09
2019-03-12T19:47:49.687Z,3.33
2019-03-12T19:50:17.676Z,3.40
2019-03-12T19:52:45.637Z,3.45
2019-03-12T19:55:19.622Z,3.24
2019-03-12T19:57:47.695Z,3.07
2019-03-12T20:00:16.889Z,3.09
2019-03-12T20:02:47.151Z,3.41
2019-03-12T20:05:15.331Z,3.81
2019-03-12T20:07:43.407Z,3.74
2019-03-12T20:10:45.658Z,3.45
2019-03-12T20:13:42.828Z,3.33
2019-03-12T20:17:09.553Z,3.92
2019-03-12T20:20:12.033Z,3.41
2019-03-12T20:23:16.176Z,3.40
2019-03-12T20:26:20.647Z,3.45
2019-03-12T20:29:53.229Z,3.22
2019-03-12T20:33:09.111Z,3.49
2019-03-12T20:36:22.699Z,3.26
2019-03-12T20:39:20.236Z,3.28
2019-03-12T20:42:31.863Z,3.02
2019-03-12T20:45:28.254Z,3.23
2019-03-12T20:48:33.324Z,3.08
2019-03-12T20:51:45.400Z,2.98
2019-03-12T20:54:51.730Z,3.18
2019-03-12T20:58:08.387Z,3.07
2019-03-12T21:01:39.087Z,2.96
2019-03-12T21:04:42.751Z,3.37
2019-03-12T21:07:50.861Z,3.08
2019-03-12T21:10:55.536Z,3.30
2019-03-12T21:14:38.459Z,3.07
2019-03-12T21:17:48.731Z,3.04
2019-03-12T21:20:52.546Z,3.19
2019-03-12T21:23:52.635Z,3.47
2019-03-12T21:27:03.062Z,3.38
2019-03-12T21:29:49.205Z,3.20
2019-03-12T21:32:17.951Z,3.03
2019-03-12T21:34:46.002Z,3.21
2019-03-12T21:37:13.885Z,3.27
2019-03-12T21:39:54.472Z,3.12
2019-03-12T21:42:11.440Z,3.38
2019-03-12T21:44:39.183Z,3.61
2019-03-12T21:47:07.073Z,3.49
2019-03-12T21:49:34.894Z,3.49
2019-03-12T21:52:02.723Z,3.32
2019-03-12T21:54:30.585Z,3.36
2019-03-12T21:56:58.244Z,3.37
2019-03-12T21:59:25.583Z,3.23
2019-03-12T22:01:53.056Z,3.61
2019-03-12T22:04:20.453Z,3.37
2019-03-12T22:06:47.832Z,3.40
2019-03-12T22:09:15.236Z,3.52
2019-03-12T22:11:42.717Z,3.86
2019-03-12T22:14:10.082Z,4.49
2019-03-12T22:16:37.401Z,4.51
2019-03-12T22:19:04.783Z,4.49
2019-03-12T22:21:41.034Z,4.53
2019-03-12T22:24:08.448Z,4.64
2019-03-12T22:26:35.815Z,4.30
2019-03-12T22:29:03.270Z,4.04
2019-03-12T22:31:30.591Z,3.89
2019-03-12T22:33:57.897Z,3.86
2019-03-12T22:36:25.200Z,4.10
2019-03-12T22:38:52.527Z,4.03
2019-03-12T22:41:19.821Z,3.91
2019-03-12T22:43:47.189Z,3.84
2019-03-12T22:46:14.526Z,3.56
2019-03-12T22:48:42.333Z,3.48
2019-03-12T22:51:09.662Z,3.87
2019-03-12T22:53:39.461Z,4.04
2019-03-12T22:56:06.820Z,4.08
2019-03-12T22:58:34.144Z,3.97
2019-03-12T23:01:01.461Z,4.20
2019-03-12T23:03:28.802Z,3.94
2019-03-12T23:05:56.162Z,4.37
2019-03-12T23:08:23.529Z,4.28
2019-03-12T23:10:50.900Z,4.03
2019-03-12T23:13:18.571Z,4.11
2019-03-12T23:15:45.863Z,3.97
2019-03-12T23:18:13.187Z,3.68
2019-03-12T23:20:40.481Z,3.77
2019-03-12T23:23:07.825Z,3.82
2019-03-12T23:25:35.122Z,3.84
2019-03-12T23:28:02.427Z,3.79
2019-03-12T23:30:29.732Z,4.01
2019-03-12T23:32:57.021Z,4.49
2019-03-12T23:35:24.280Z,4.37
2019-03-12T23:37:51.600Z,4.30
2019-03-12T23:40:19.001Z,4.30
2019-03-12T23:42:46.359Z,3.95
2019-03-12T23:45:14.461Z,4.21
2019-03-12T23:47:41.965Z,4.21
2019-03-12T23:50:09.445Z,3.89
2019-03-12T23:52:36.904Z,3.76
2019-03-12T23:55:04.351Z,4.41
2019-03-12T23:57:31.662Z,4.54
2019-03-12T23:59:58.981Z,4.27
